»·PEaware :: ASA715 KSLC-KPDX

ASA715 :: KSLC-KPDX

FLIGHT INFORMATION

Flight Status: Arrived
Operator:
Alaska Airlines
More flights by this operator :: More flights under this callsign
Pilot: Andrew M. (139)
Aircraft: BOEING 737-800
(B738)
More flights by this aircraft type
Origin: KSLC Salt Lake City Intl
United States
Destination: KPDX Portland Intl
United States
More flights between these airports :: More routes between these airports
Route: CGULL1 TWF J15 BOI J163 BKE JOTBA HHOOD4
File this flight plan on PilotEdge
Remarks: PBN / A1B1C1D1S1S2 NAV / RNVD1E2A1 REG / N608BT EET / KZSE0059 RMK / SIMBRIEF
Altitude:
(Current/Filed)
36,000ft
Speed:
(Current/Filed)
449kts
Departed: 10-Jan-19 07:15 PM
Arrived: 10-Jan-19 08:56 PM
Distance/Time
Traveled:
546nm/1:41
Distance/Time
To Go:
Arrived

Flight Plot

Page will automatically refresh every two minutes.

Flight plan parsing failed; only flown route is shown


Map Options




Map Legend


Flown Route
Filed Route
Departure Airport
Arrival Airport
Navaid (VOR, NDB)
Fix

Horizontal Profiles

Position Reports

Time Latitude Longitude Heading Altitude Ground
Speed
10-Jan-19 18:03 40.788553 -111.984284 252 4223ft 0kts
10-Jan-19 18:04 40.788553 -111.984284 252 4223ft 0kts
10-Jan-19 18:05 40.788553 -111.984284 252 4223ft 0kts
10-Jan-19 18:06 40.788553 -111.984284 252 4223ft 0kts
10-Jan-19 18:07 40.788553 -111.984284 252 4223ft 0kts
10-Jan-19 18:08 40.788553 -111.984284 252 4224ft 0kts
10-Jan-19 18:09 40.788553 -111.984284 252 4224ft 0kts
10-Jan-19 18:10 40.788553 -111.984284 252 4224ft 0kts
10-Jan-19 18:11 40.788553 -111.984284 252 4224ft 0kts
10-Jan-19 18:12 40.788553 -111.984284 252 4224ft 0kts
10-Jan-19 18:13 40.788553 -111.984284 252 4224ft 0kts
10-Jan-19 18:14 40.788553 -111.984284 252 4224ft 0kts
10-Jan-19 18:15 40.788553 -111.984284 252 4224ft 0kts
10-Jan-19 18:16 40.788553 -111.984284 252 4224ft 0kts
10-Jan-19 18:17 40.788553 -111.984284 252 4224ft 0kts
10-Jan-19 18:18 40.788553 -111.984284 252 4223ft 0kts
10-Jan-19 18:19 40.788553 -111.984284 252 4223ft 0kts
10-Jan-19 18:20 40.788553 -111.984284 252 4223ft 0kts
10-Jan-19 18:21 40.788553 -111.984284 252 4223ft 0kts
10-Jan-19 18:22 40.788553 -111.984284 252 4223ft 0kts
10-Jan-19 18:23 40.788553 -111.984284 252 4223ft 0kts
10-Jan-19 18:25 40.788553 -111.984284 252 4223ft 0kts
10-Jan-19 18:26 40.788553 -111.984284 252 4223ft 0kts
10-Jan-19 18:27 40.788553 -111.984284 252 4223ft 0kts
10-Jan-19 18:28 40.788553 -111.984284 252 4223ft 0kts
10-Jan-19 18:29 40.788553 -111.984284 252 4223ft 0kts
10-Jan-19 18:30 40.788553 -111.984284 252 4223ft 0kts
10-Jan-19 18:31 40.788553 -111.984284 252 4223ft 0kts
10-Jan-19 18:32 40.788553 -111.984284 252 4223ft 0kts
10-Jan-19 18:33 40.788553 -111.984284 252 4223ft 0kts
10-Jan-19 18:34 40.788553 -111.984284 252 4223ft 0kts
10-Jan-19 18:35 40.788553 -111.984284 252 4223ft 0kts
10-Jan-19 18:36 40.788553 -111.984284 252 4223ft 0kts
10-Jan-19 18:37 40.788553 -111.984284 252 4223ft 0kts
10-Jan-19 18:38 40.788553 -111.984284 252 4223ft 0kts
10-Jan-19 18:39 40.788553 -111.984284 252 4223ft 0kts
10-Jan-19 18:40 40.788553 -111.984284 252 4223ft 0kts
10-Jan-19 18:41 40.788553 -111.984284 252 4223ft 0kts
10-Jan-19 18:41 40.788553 -111.984284 252 4223ft 0kts
10-Jan-19 18:43 40.788553 -111.984284 252 4223ft 0kts
10-Jan-19 18:44 40.788553 -111.984284 252 4223ft 0kts
10-Jan-19 18:45 40.788553 -111.984284 252 4223ft 0kts
10-Jan-19 18:45 40.788553 -111.984284 252 4223ft 0kts
10-Jan-19 18:47 40.788553 -111.984284 252 4223ft 0kts
10-Jan-19 18:48 40.788553 -111.984284 252 4223ft 0kts
10-Jan-19 18:48 40.788631 -111.983953 252 4223ft 2kts
10-Jan-19 18:50 40.788406 -111.983462 342 4223ft 0kts
10-Jan-19 18:50 40.788406 -111.983462 342 4223ft 0kts
10-Jan-19 18:51 40.788406 -111.983462 342 4223ft 0kts
10-Jan-19 18:52 40.788406 -111.983462 342 4223ft 0kts
10-Jan-19 18:53 40.788406 -111.983462 342 4223ft 0kts
10-Jan-19 18:54 40.788406 -111.983462 342 4223ft 0kts
10-Jan-19 18:55 40.788406 -111.983462 342 4223ft 0kts
10-Jan-19 18:56 40.788406 -111.983462 342 4223ft 0kts
10-Jan-19 18:57 40.788406 -111.983462 342 4223ft 0kts
10-Jan-19 18:58 40.788772 -111.983527 5 4223ft 4kts
10-Jan-19 18:59 40.790703 -111.982915 354 4222ft 10kts
10-Jan-19 19:00 40.791928 -111.980138 84 4220ft 11kts
10-Jan-19 19:01 40.791524 -111.977244 175 4222ft 6kts
10-Jan-19 19:02 40.788800 -111.976955 174 4223ft 12kts
10-Jan-19 19:03 40.784972 -111.976501 174 4226ft 13kts
10-Jan-19 19:04 40.780993 -111.976052 174 4227ft 15kts
10-Jan-19 19:05 40.776562 -111.975540 175 4227ft 15kts
10-Jan-19 19:06 40.774526 -111.974562 102 4227ft 0kts
10-Jan-19 19:07 40.774526 -111.974562 102 4227ft 0kts
10-Jan-19 19:08 40.774526 -111.974562 102 4227ft 0kts
10-Jan-19 19:09 40.774526 -111.974562 102 4227ft 0kts
10-Jan-19 19:10 40.774526 -111.974562 102 4227ft 0kts
10-Jan-19 19:11 40.774526 -111.974562 102 4227ft 0kts
10-Jan-19 19:12 40.774526 -111.974562 102 4227ft 0kts
10-Jan-19 19:13 40.774793 -111.973598 38 4227ft 5kts
10-Jan-19 19:14 40.777644 -111.973477 355 4227ft 57kts
10-Jan-19 19:15 40.815321 -111.978259 347 4706ft 170kts
10-Jan-19 19:16 40.848623 -112.025932 306 6028ft 192kts
10-Jan-19 19:17 40.886291 -112.094839 306 6587ft 267kts
10-Jan-19 19:18 40.930663 -112.175513 306 8808ft 275kts
10-Jan-19 19:19 40.977224 -112.259018 306 10469ft 300kts
10-Jan-19 19:20 41.028793 -112.351772 306 12502ft 317kts
10-Jan-19 19:21 41.086733 -112.441412 324 14849ft 330kts
10-Jan-19 19:22 41.165805 -112.507271 325 17237ft 343kts
10-Jan-19 19:23 41.242346 -112.583167 321 19408ft 355kts
10-Jan-19 19:24 41.315957 -112.672216 310 21465ft 364kts
10-Jan-19 19:25 41.384824 -112.774186 310 23393ft 375kts
10-Jan-19 19:26 41.454614 -112.879959 309 25169ft 384kts
10-Jan-19 19:27 41.525447 -112.988832 309 26822ft 393kts
10-Jan-19 19:28 41.597649 -113.100042 310 28366ft 400kts
10-Jan-19 19:29 41.671152 -113.213615 310 29801ft 407kts
10-Jan-19 19:30 41.745635 -113.329130 310 31133ft 412kts
10-Jan-19 19:31 41.820414 -113.445533 310 32594ft 411kts
10-Jan-19 19:32 41.894718 -113.561613 310 33819ft 410kts
10-Jan-19 19:33 41.968747 -113.677702 309 34968ft 406kts
10-Jan-19 19:34 42.042099 -113.793281 308 35871ft 404kts
10-Jan-19 19:35 42.115271 -113.908953 308 36244ft 414kts
10-Jan-19 19:36 42.190641 -114.028412 308 36238ft 419kts
10-Jan-19 19:37 42.266263 -114.148144 309 36243ft 417kts
10-Jan-19 19:38 42.341533 -114.267847 309 36245ft 417kts
10-Jan-19 19:39 42.405034 -114.369235 309 36245ft 417kts
10-Jan-19 19:40 42.479762 -114.488965 309 36245ft 416kts
10-Jan-19 19:41 42.555650 -114.606772 310 36241ft 414kts
10-Jan-19 19:42 42.631436 -114.724260 310 36246ft 414kts
10-Jan-19 19:43 42.706718 -114.841457 310 36239ft 413kts
10-Jan-19 19:44 42.781965 -114.958994 310 36237ft 411kts
10-Jan-19 19:45 42.856700 -115.076250 310 36236ft 410kts
10-Jan-19 19:46 42.931064 -115.193385 312 36229ft 404kts
10-Jan-19 19:47 43.004844 -115.310040 312 36232ft 405kts
10-Jan-19 19:48 43.078090 -115.426291 312 36226ft 401kts
10-Jan-19 19:49 43.148897 -115.539103 312 36237ft 391kts
10-Jan-19 19:50 43.218927 -115.651047 312 36239ft 389kts
10-Jan-19 19:51 43.289594 -115.764674 312 36241ft 389kts
10-Jan-19 19:52 43.359282 -115.877199 312 36240ft 388kts
10-Jan-19 19:53 43.403390 -115.948642 312 36239ft 387kts
10-Jan-19 19:54 43.472956 -116.061619 312 36248ft 384kts
10-Jan-19 19:55 43.541923 -116.174016 312 36256ft 384kts
10-Jan-19 19:56 43.619649 -116.274533 320 36253ft 383kts
10-Jan-19 19:57 43.699454 -116.371609 320 36248ft 383kts
10-Jan-19 19:58 43.779002 -116.468964 320 36243ft 383kts
10-Jan-19 19:59 43.858637 -116.566855 320 36231ft 383kts
10-Jan-19 20:00 43.938110 -116.664936 319 36233ft 383kts
10-Jan-19 20:01 44.017297 -116.763287 319 36243ft 383kts
10-Jan-19 20:02 44.096478 -116.861987 319 36241ft 383kts
10-Jan-19 20:03 44.175550 -116.960926 319 36258ft 383kts
10-Jan-19 20:04 44.254247 -117.059770 319 36267ft 382kts
10-Jan-19 20:05 44.333413 -117.159542 319 36275ft 382kts
10-Jan-19 20:06 44.412190 -117.259175 319 36250ft 382kts
10-Jan-19 20:07 44.490878 -117.359012 319 36228ft 382kts
10-Jan-19 20:08 44.569136 -117.458615 318 36226ft 381kts
10-Jan-19 20:09 44.647346 -117.558574 319 36224ft 381kts
10-Jan-19 20:10 44.725686 -117.659099 318 36224ft 381kts
10-Jan-19 20:11 44.803410 -117.759874 314 36225ft 381kts
10-Jan-19 20:12 44.851622 -117.893291 286 36231ft 392kts
10-Jan-19 20:13 44.872448 -118.047771 284 36209ft 405kts
10-Jan-19 20:14 44.892659 -118.203580 284 36204ft 404kts
10-Jan-19 20:15 44.912711 -118.359690 284 36204ft 405kts
10-Jan-19 20:16 44.932577 -118.515997 284 36203ft 405kts
10-Jan-19 20:17 44.951752 -118.668461 283 36204ft 406kts
10-Jan-19 20:18 44.971165 -118.825406 283 36205ft 406kts
10-Jan-19 20:19 44.990422 -118.982718 283 36202ft 407kts
10-Jan-19 20:20 45.009464 -119.139900 282 36197ft 407kts
10-Jan-19 20:21 45.028402 -119.297918 282 36200ft 408kts
10-Jan-19 20:22 45.047095 -119.455714 282 36198ft 407kts
10-Jan-19 20:23 45.065616 -119.613943 282 36199ft 406kts
10-Jan-19 20:24 45.083806 -119.771786 281 36205ft 407kts
10-Jan-19 20:25 45.101773 -119.929893 281 36207ft 408kts
10-Jan-19 20:26 45.119684 -120.088963 280 36210ft 410kts
10-Jan-19 20:27 45.137386 -120.248202 280 36211ft 409kts
10-Jan-19 20:28 45.154888 -120.407466 280 35661ft 408kts
10-Jan-19 20:29 45.183253 -120.562148 298 34690ft 407kts
10-Jan-19 20:30 45.237459 -120.703505 299 33325ft 412kts
10-Jan-19 20:31 45.293225 -120.848742 298 29552ft 426kts
10-Jan-19 20:32 45.348567 -120.993590 297 26878ft 412kts
10-Jan-19 20:33 45.402404 -121.135116 296 24239ft 402kts
10-Jan-19 20:34 45.444228 -121.279759 284 21644ft 391kts
10-Jan-19 20:35 45.472555 -121.423669 283 19562ft 351kts
10-Jan-19 20:36 45.497975 -121.552332 283 17576ft 333kts
10-Jan-19 20:38 45.522647 -121.677929 282 15554ft 317kts
10-Jan-19 20:39 45.533285 -121.795412 268 14907ft 295kts
10-Jan-19 20:40 45.537138 -121.912396 269 13334ft 292kts
10-Jan-19 20:41 45.552070 -122.025307 282 11882ft 293kts
10-Jan-19 20:42 45.575193 -122.135637 282 10601ft 285kts
10-Jan-19 20:43 45.597405 -122.242233 283 9504ft 276kts
10-Jan-19 20:44 45.628916 -122.342659 295 8290ft 278kts
10-Jan-19 20:45 45.663969 -122.440570 295 7162ft 275kts
10-Jan-19 20:46 45.698068 -122.538017 295 6078ft 272kts
10-Jan-19 20:47 45.731284 -122.634463 295 5120ft 266kts
10-Jan-19 20:48 45.763600 -122.728661 294 4178ft 262kts
10-Jan-19 20:49 45.776140 -122.819375 234 3730ft 221kts
10-Jan-19 20:50 45.726027 -122.862878 181 3006ft 208kts
10-Jan-19 20:51 45.677528 -122.827906 133 2992ft 196kts
10-Jan-19 20:52 45.651183 -122.765868 119 2296ft 171kts
10-Jan-19 20:53 45.636034 -122.705421 103 1470ft 158kts
10-Jan-19 20:54 45.617576 -122.654133 122 659ft 138kts
10-Jan-19 20:55 45.598423 -122.604932 120 216ft 146kts
10-Jan-19 20:56 45.587013 -122.576128 164 24ft 4kts
10-Jan-19 20:57 45.586424 -122.576334 206 24ft 2kts
10-Jan-19 20:57 45.586548 -122.577602 297 24ft 8kts
10-Jan-19 20:59 45.588592 -122.582901 298 24ft 16kts
10-Jan-19 21:00 45.590689 -122.588287 298 24ft 16kts
10-Jan-19 21:00 45.592588 -122.593186 298 24ft 18kts
10-Jan-19 21:02 45.592795 -122.597832 219 26ft 12kts
10-Jan-19 21:02 45.590985 -122.598080 103 24ft 7kts
10-Jan-19 21:03 45.591142 -122.596869 71 24ft 0kts
10-Jan-19 21:04 45.591142 -122.596869 71 24ft 0kts

Navigation Log

Ident Type
Flight plan parsing failed, navigation log unavailable